sensor_id;sensor_type;location;lat;lon;timestamp;pressure;altitude;pressure_sealevel;temperature;humidity
28626;BME280;18905;42.668;23.364;2023-04-10T00:00:30;95216.84;;;7.97;100.00
28626;BME280;18905;42.668;23.364;2023-04-10T00:02:58;95215.94;;;8.15;100.00
28626;BME280;18905;42.668;23.364;2023-04-10T00:05:25;95206.72;;;8.21;100.00
28626;BME280;18905;42.668;23.364;2023-04-10T00:07:51;95200.09;;;8.13;100.00
28626;BME280;18905;42.668;23.364;2023-04-10T00:10:17;95219.31;;;8.07;100.00
28626;BME280;18905;42.668;23.364;2023-04-10T00:12:43;95191.88;;;7.96;100.00
28626;BME280;18905;42.668;23.364;2023-04-10T00:15:08;95210.06;;;7.99;100.00
28626;BME280;18905;42.668;23.364;2023-04-10T00:17:34;95207.19;;;7.96;100.00
28626;BME280;18905;42.668;23.364;2023-04-10T00:20:00;95180.56;;;7.67;100.00
28626;BME280;18905;42.668;23.364;2023-04-10T00:22:25;95195.44;;;7.92;100.00
28626;BME280;18905;42.668;23.364;2023-04-10T00:24:50;95196.84;;;8.03;100.00
28626;BME280;18905;42.668;23.364;2023-04-10T00:27:16;95199.59;;;7.98;100.00
28626;BME280;18905;42.668;23.364;2023-04-10T00:29:41;95190.47;;;7.99;100.00
28626;BME280;18905;42.668;23.364;2023-04-10T00:32:07;95185.25;;;7.89;100.00
28626;BME280;18905;42.668;23.364;2023-04-10T00:34:32;95195.31;;;7.97;100.00
28626;BME280;18905;42.668;23.364;2023-04-10T00:36:58;95180.97;;;7.88;100.00
28626;BME280;18905;42.668;23.364;2023-04-10T00:39:23;95195.94;;;8.07;100.00
28626;BME280;18905;42.668;23.364;2023-04-10T00:41:49;95175.91;;;8.00;100.00
28626;BME280;18905;42.668;23.364;2023-04-10T00:44:14;95187.47;;;8.00;99.75
28626;BME280;18905;42.668;23.364;2023-04-10T00:46:40;95174.03;;;7.87;100.00
28626;BME280;18905;42.668;23.364;2023-04-10T00:49:06;95188.56;;;7.86;100.00
28626;BME280;18905;42.668;23.364;2023-04-10T00:51:33;95169.72;;;7.72;100.00
28626;BME280;18905;42.668;23.364;2023-04-10T00:53:59;95165.16;;;7.59;100.00
28626;BME280;18905;42.668;23.364;2023-04-10T00:56:26;95185.56;;;7.74;100.00
28626;BME280;18905;42.668;23.364;2023-04-10T00:58:52;95180.84;;;7.66;100.00
28626;BME280;18905;42.668;23.364;2023-04-10T01:01:17;95164.72;;;7.52;100.00
28626;BME280;18905;42.668;23.364;2023-04-10T01:03:43;95179.16;;;7.56;100.00
28626;BME280;18905;42.668;23.364;2023-04-10T01:14:11;95170.41;;;7.51;100.00
28626;BME280;18905;42.668;23.364;2023-04-10T01:17:06;95171.69;;;7.53;100.00
28626;BME280;18905;42.668;23.364;2023-04-10T01:22:31;95176.88;;;7.63;100.00
28626;BME280;18905;42.668;23.364;2023-04-10T01:28:06;95175.59;;;7.61;100.00
28626;BME280;18905;42.668;23.364;2023-04-10T01:30:36;95179.59;;;7.77;100.00
28626;BME280;18905;42.668;23.364;2023-04-10T01:33:02;95163.75;;;7.62;100.00
28626;BME280;18905;42.668;23.364;2023-04-10T01:35:32;95156.47;;;7.62;100.00
28626;BME280;18905;42.668;23.364;2023-04-10T01:38:01;95165.56;;;7.93;100.00
28626;BME280;18905;42.668;23.364;2023-04-10T01:40:30;95172.94;;;8.01;100.00
28626;BME280;18905;42.668;23.364;2023-04-10T01:42:57;95173.13;;;8.05;100.00
28626;BME280;18905;42.668;23.364;2023-04-10T01:45:27;95176.59;;;8.19;100.00
28626;BME280;18905;42.668;23.364;2023-04-10T01:47:54;95165.06;;;8.05;100.00
28626;BME280;18905;42.668;23.364;2023-04-10T01:50:20;95173.34;;;8.22;100.00
28626;BME280;18905;42.668;23.364;2023-04-10T01:52:49;95166.94;;;8.31;100.00
28626;BME280;18905;42.668;23.364;2023-04-10T01:55:16;95168.66;;;8.27;100.00
28626;BME280;18905;42.668;23.364;2023-04-10T01:57:43;95137.47;;;8.13;100.00
28626;BME280;18905;42.668;23.364;2023-04-10T02:00:09;95176.03;;;8.22;100.00
28626;BME280;18905;42.668;23.364;2023-04-10T02:02:35;95181.63;;;8.25;100.00
28626;BME280;18905;42.668;23.364;2023-04-10T02:05:00;95172.22;;;8.36;100.00
28626;BME280;18905;42.668;23.364;2023-04-10T02:07:35;95168.31;;;8.56;100.00
28626;BME280;18905;42.668;23.364;2023-04-10T02:10:09;95159.75;;;8.54;100.00
28626;BME280;18905;42.668;23.364;2023-04-10T02:12:38;95161.81;;;8.57;100.00
28626;BME280;18905;42.668;23.364;2023-04-10T02:15:07;95145.19;;;8.55;100.00
28626;BME280;18905;42.668;23.364;2023-04-10T02:17:34;95159.47;;;8.77;100.00
28626;BME280;18905;42.668;23.364;2023-04-10T02:20:01;95150.38;;;8.87;100.00
28626;BME280;18905;42.668;23.364;2023-04-10T02:22:28;95106.69;;;8.68;100.00
28626;BME280;18905;42.668;23.364;2023-04-10T02:24:54;95123.75;;;8.85;100.00
28626;BME280;18905;42.668;23.364;2023-04-10T02:27:46;95146.97;;;8.95;100.00
28626;BME280;18905;42.668;23.364;2023-04-10T02:30:11;95129.94;;;8.86;100.00
28626;BME280;18905;42.668;23.364;2023-04-10T02:32:36;95132.38;;;8.74;100.00
28626;BME280;18905;42.668;23.364;2023-04-10T02:35:02;95127.53;;;8.62;100.00
28626;BME280;18905;42.668;23.364;2023-04-10T02:37:28;95119.00;;;8.47;100.00
28626;BME280;18905;42.668;23.364;2023-04-10T02:39:54;95108.66;;;8.40;100.00
28626;BME280;18905;42.668;23.364;2023-04-10T02:42:19;95125.13;;;8.61;100.00
28626;BME280;18905;42.668;23.364;2023-04-10T02:44:47;95106.53;;;8.51;100.00
28626;BME280;18905;42.668;23.364;2023-04-10T02:47:12;95098.69;;;8.41;100.00
28626;BME280;18905;42.668;23.364;2023-04-10T02:49:37;95115.44;;;8.38;100.00
28626;BME280;18905;42.668;23.364;2023-04-10T02:52:03;95122.63;;;8.29;100.00
28626;BME280;18905;42.668;23.364;2023-04-10T02:54:28;95110.38;;;8.23;100.00
28626;BME280;18905;42.668;23.364;2023-04-10T02:56:55;95115.34;;;8.16;100.00
28626;BME280;18905;42.668;23.364;2023-04-10T02:59:21;95109.69;;;8.04;100.00
28626;BME280;18905;42.668;23.364;2023-04-10T03:01:47;95112.69;;;8.02;100.00
28626;BME280;18905;42.668;23.364;2023-04-10T03:04:12;95117.88;;;7.99;100.00
28626;BME280;18905;42.668;23.364;2023-04-10T03:06:38;95122.66;;;7.88;100.00
28626;BME280;18905;42.668;23.364;2023-04-10T03:09:03;95100.16;;;7.84;100.00
28626;BME280;18905;42.668;23.364;2023-04-10T03:11:29;95101.53;;;7.55;100.00
28626;BME280;18905;42.668;23.364;2023-04-10T03:13:55;95116.97;;;7.63;100.00
28626;BME280;18905;42.668;23.364;2023-04-10T03:16:22;95108.41;;;7.88;100.00
28626;BME280;18905;42.668;23.364;2023-04-10T03:18:48;95096.53;;;7.89;100.00
28626;BME280;18905;42.668;23.364;2023-04-10T03:21:13;95116.56;;;8.10;100.00
28626;BME280;18905;42.668;23.364;2023-04-10T03:23:39;95115.19;;;7.99;100.00
28626;BME280;18905;42.668;23.364;2023-04-10T03:26:04;95102.84;;;7.84;100.00
28626;BME280;18905;42.668;23.364;2023-04-10T03:28:30;95112.78;;;7.70;100.00
28626;BME280;18905;42.668;23.364;2023-04-10T03:30:57;95097.06;;;7.64;100.00
28626;BME280;18905;42.668;23.364;2023-04-10T03:33:22;95094.19;;;7.60;100.00
28626;BME280;18905;42.668;23.364;2023-04-10T03:35:47;95109.41;;;7.65;100.00
28626;BME280;18905;42.668;23.364;2023-04-10T03:38:13;95101.94;;;7.62;100.00
28626;BME280;18905;42.668;23.364;2023-04-10T03:40:38;95119.81;;;7.26;100.00
28626;BME280;18905;42.668;23.364;2023-04-10T03:43:04;95134.31;;;7.25;100.00
28626;BME280;18905;42.668;23.364;2023-04-10T03:45:30;95115.06;;;6.91;100.00
28626;BME280;18905;42.668;23.364;2023-04-10T03:47:55;95131.03;;;6.82;100.00
28626;BME280;18905;42.668;23.364;2023-04-10T03:50:21;95133.38;;;6.70;100.00
28626;BME280;18905;42.668;23.364;2023-04-10T03:52:46;95123.34;;;6.76;100.00
28626;BME280;18905;42.668;23.364;2023-04-10T03:55:14;95138.09;;;6.92;100.00
28626;BME280;18905;42.668;23.364;2023-04-10T03:57:44;95141.41;;;6.70;100.00
28626;BME280;18905;42.668;23.364;2023-04-10T04:00:11;95138.53;;;6.67;100.00
28626;BME280;18905;42.668;23.364;2023-04-10T04:02:37;95147.31;;;6.54;100.00
28626;BME280;18905;42.668;23.364;2023-04-10T04:05:02;95123.75;;;6.32;100.00
28626;BME280;18905;42.668;23.364;2023-04-10T04:07:28;95151.78;;;6.40;100.00
28626;BME280;18905;42.668;23.364;2023-04-10T04:09:53;95153.97;;;6.56;100.00
28626;BME280;18905;42.668;23.364;2023-04-10T04:12:19;95130.34;;;6.40;100.00
28626;BME280;18905;42.668;23.364;2023-04-10T04:14:44;95154.53;;;6.72;100.00
28626;BME280;18905;42.668;23.364;2023-04-10T04:17:10;95158.59;;;6.69;100.00
28626;BME280;18905;42.668;23.364;2023-04-10T04:19:36;95148.97;;;6.68;100.00
28626;BME280;18905;42.668;23.364;2023-04-10T04:22:01;95128.19;;;6.74;100.00
28626;BME280;18905;42.668;23.364;2023-04-10T04:24:27;95129.47;;;6.95;100.00
28626;BME280;18905;42.668;23.364;2023-04-10T04:26:52;95148.84;;;6.92;100.00
28626;BME280;18905;42.668;23.364;2023-04-10T04:29:18;95160.09;;;7.26;100.00
28626;BME280;18905;42.668;23.364;2023-04-10T04:31:43;95156.06;;;8.09;100.00
28626;BME280;18905;42.668;23.364;2023-04-10T04:34:08;95158.38;;;9.22;100.00
28626;BME280;18905;42.668;23.364;2023-04-10T04:36:34;95152.72;;;10.15;100.00
28626;BME280;18905;42.668;23.364;2023-04-10T04:38:59;95129.94;;;10.81;100.00
28626;BME280;18905;42.668;23.364;2023-04-10T04:41:25;95151.13;;;11.76;100.00
28626;BME280;18905;42.668;23.364;2023-04-10T04:43:50;95150.19;;;12.47;100.00
28626;BME280;18905;42.668;23.364;2023-04-10T04:46:17;95153.06;;;12.71;94.68
28626;BME280;18905;42.668;23.364;2023-04-10T04:48:43;95164.88;;;12.67;93.61
28626;BME280;18905;42.668;23.364;2023-04-10T04:51:08;95161.31;;;11.79;96.92
28626;BME280;18905;42.668;23.364;2023-04-10T04:53:33;95154.25;;;11.95;97.80
28626;BME280;18905;42.668;23.364;2023-04-10T04:55:59;95168.41;;;12.01;96.03
28626;BME280;18905;42.668;23.364;2023-04-10T04:58:25;95162.47;;;11.61;100.00
28626;BME280;18905;42.668;23.364;2023-04-10T05:00:50;95164.44;;;11.98;96.27
28626;BME280;18905;42.668;23.364;2023-04-10T05:03:16;95145.41;;;11.77;95.85
28626;BME280;18905;42.668;23.364;2023-04-10T05:05:42;95179.50;;;11.61;96.94
28626;BME280;18905;42.668;23.364;2023-04-10T05:08:07;95167.22;;;11.73;95.37
28626;BME280;18905;42.668;23.364;2023-04-10T05:10:33;95172.16;;;11.79;94.98
28626;BME280;18905;42.668;23.364;2023-04-10T05:12:59;95177.28;;;11.55;95.88
28626;BME280;18905;42.668;23.364;2023-04-10T05:15:25;95169.03;;;11.26;100.00
28626;BME280;18905;42.668;23.364;2023-04-10T05:17:50;95185.72;;;11.36;99.46
28626;BME280;18905;42.668;23.364;2023-04-10T05:20:17;95180.00;;;11.12;100.00
28626;BME280;18905;42.668;23.364;2023-04-10T05:22:43;95148.50;;;10.65;100.00
28626;BME280;18905;42.668;23.364;2023-04-10T05:25:08;95146.13;;;11.32;100.00
28626;BME280;18905;42.668;23.364;2023-04-10T05:27:34;95127.22;;;11.23;100.00
28626;BME280;18905;42.668;23.364;2023-04-10T05:29:59;95177.03;;;11.94;100.00
28626;BME280;18905;42.668;23.364;2023-04-10T05:32:25;95169.44;;;12.25;97.58
28626;BME280;18905;42.668;23.364;2023-04-10T05:34:50;95178.22;;;12.51;98.99
28626;BME280;18905;42.668;23.364;2023-04-10T05:37:15;95170.31;;;12.87;100.00
28626;BME280;18905;42.668;23.364;2023-04-10T05:39:41;95144.78;;;12.97;91.74
28626;BME280;18905;42.668;23.364;2023-04-10T05:42:06;95172.53;;;13.35;81.70
28626;BME280;18905;42.668;23.364;2023-04-10T05:44:31;95173.59;;;13.22;80.84
28626;BME280;18905;42.668;23.364;2023-04-10T05:46:57;95172.00;;;13.21;78.38
28626;BME280;18905;42.668;23.364;2023-04-10T05:49:22;95184.50;;;13.34;77.84
28626;BME280;18905;42.668;23.364;2023-04-10T05:51:48;95174.13;;;13.36;78.14
28626;BME280;18905;42.668;23.364;2023-04-10T05:54:15;95152.69;;;13.22;78.63
28626;BME280;18905;42.668;23.364;2023-04-10T05:56:41;95191.97;;;13.57;76.07
28626;BME280;18905;42.668;23.364;2023-04-10T05:59:06;95167.19;;;13.26;75.45
28626;BME280;18905;42.668;23.364;2023-04-10T06:01:31;95167.06;;;13.02;76.87
28626;BME280;18905;42.668;23.364;2023-04-10T06:03:57;95175.22;;;12.44;80.24
28626;BME280;18905;42.668;23.364;2023-04-10T06:06:22;95171.69;;;12.15;84.62
28626;BME280;18905;42.668;23.364;2023-04-10T06:08:50;95156.72;;;11.54;88.01
28626;BME280;18905;42.668;23.364;2023-04-10T06:11:15;95187.00;;;11.30;90.93
28626;BME280;18905;42.668;23.364;2023-04-10T06:13:41;95178.06;;;10.87;94.49
28626;BME280;18905;42.668;23.364;2023-04-10T06:16:07;95182.06;;;11.24;96.04
28626;BME280;18905;42.668;23.364;2023-04-10T06:18:32;95178.72;;;11.52;92.62
28626;BME280;18905;42.668;23.364;2023-04-10T06:20:58;95176.84;;;10.93;95.29
28626;BME280;18905;42.668;23.364;2023-04-10T06:23:26;95181.13;;;11.20;94.46
28626;BME280;18905;42.668;23.364;2023-04-10T06:25:53;95179.06;;;11.25;93.81
28626;BME280;18905;42.668;23.364;2023-04-10T06:28:18;95177.13;;;11.34;92.90
28626;BME280;18905;42.668;23.364;2023-04-10T06:30:44;95175.72;;;11.37;92.71
28626;BME280;18905;42.668;23.364;2023-04-10T06:33:10;95177.41;;;11.50;91.75
28626;BME280;18905;42.668;23.364;2023-04-10T06:35:35;95178.41;;;11.37;94.29
28626;BME280;18905;42.668;23.364;2023-04-10T06:38:02;95159.63;;;11.40;91.10
28626;BME280;18905;42.668;23.364;2023-04-10T06:40:27;95180.44;;;11.40;91.13
28626;BME280;18905;42.668;23.364;2023-04-10T06:42:54;95181.28;;;11.32;92.52
28626;BME280;18905;42.668;23.364;2023-04-10T06:45:19;95182.81;;;10.56;95.68
28626;BME280;18905;42.668;23.364;2023-04-10T06:47:45;95184.41;;;10.57;98.46
28626;BME280;18905;42.668;23.364;2023-04-10T06:50:11;95172.72;;;10.23;99.43
28626;BME280;18905;42.668;23.364;2023-04-10T06:52:36;95188.09;;;10.14;100.00
28626;BME280;18905;42.668;23.364;2023-04-10T06:55:02;95178.38;;;9.82;100.00
28626;BME280;18905;42.668;23.364;2023-04-10T06:57:28;95191.13;;;9.90;100.00
28626;BME280;18905;42.668;23.364;2023-04-10T06:59:53;95165.94;;;9.95;100.00
28626;BME280;18905;42.668;23.364;2023-04-10T07:02:19;95188.94;;;10.23;100.00
28626;BME280;18905;42.668;23.364;2023-04-10T07:04:44;95194.31;;;10.23;100.00
28626;BME280;18905;42.668;23.364;2023-04-10T07:07:10;95188.88;;;10.14;100.00
28626;BME280;18905;42.668;23.364;2023-04-10T07:09:37;95194.94;;;10.20;100.00
28626;BME280;18905;42.668;23.364;2023-04-10T07:12:03;95177.13;;;9.80;100.00
28626;BME280;18905;42.668;23.364;2023-04-10T07:14:31;95189.19;;;9.82;100.00
28626;BME280;18905;42.668;23.364;2023-04-10T07:16:57;95176.34;;;9.79;100.00
28626;BME280;18905;42.668;23.364;2023-04-10T07:19:22;95197.63;;;9.59;100.00
28626;BME280;18905;42.668;23.364;2023-04-10T07:21:47;95187.31;;;9.61;100.00
28626;BME280;18905;42.668;23.364;2023-04-10T07:24:16;95195.78;;;9.68;100.00
28626;BME280;18905;42.668;23.364;2023-04-10T07:26:43;95194.69;;;9.69;100.00
28626;BME280;18905;42.668;23.364;2023-04-10T07:29:08;95205.88;;;9.84;100.00
28626;BME280;18905;42.668;23.364;2023-04-10T07:31:33;95184.72;;;9.78;100.00
28626;BME280;18905;42.668;23.364;2023-04-10T07:34:00;95179.06;;;9.88;100.00
28626;BME280;18905;42.668;23.364;2023-04-10T07:36:25;95185.03;;;10.07;100.00
28626;BME280;18905;42.668;23.364;2023-04-10T07:38:51;95196.13;;;10.36;100.00
28626;BME280;18905;42.668;23.364;2023-04-10T07:41:16;95189.09;;;10.26;100.00
28626;BME280;18905;42.668;23.364;2023-04-10T07:43:42;95190.13;;;10.56;100.00
28626;BME280;18905;42.668;23.364;2023-04-10T07:46:07;95195.31;;;10.44;100.00
28626;BME280;18905;42.668;23.364;2023-04-10T07:48:33;95173.41;;;10.45;99.96
28626;BME280;18905;42.668;23.364;2023-04-10T07:50:58;95177.69;;;10.46;100.00
28626;BME280;18905;42.668;23.364;2023-04-10T07:53:24;95204.59;;;10.60;100.00
28626;BME280;18905;42.668;23.364;2023-04-10T07:55:49;95192.97;;;10.59;99.12
28626;BME280;18905;42.668;23.364;2023-04-10T07:58:15;95181.72;;;10.66;100.00
28626;BME280;18905;42.668;23.364;2023-04-10T08:00:40;95184.41;;;10.57;100.00
28626;BME280;18905;42.668;23.364;2023-04-10T08:03:06;95192.50;;;10.66;100.00
28626;BME280;18905;42.668;23.364;2023-04-10T08:05:32;95195.31;;;10.44;100.00
28626;BME280;18905;42.668;23.364;2023-04-10T08:07:58;95182.81;;;10.56;100.00
28626;BME280;18905;42.668;23.364;2023-04-10T08:10:23;95197.09;;;10.48;100.00
28626;BME280;18905;42.668;23.364;2023-04-10T08:12:48;95176.91;;;10.46;100.00
28626;BME280;18905;42.668;23.364;2023-04-10T08:15:14;95181.88;;;10.61;100.00
28626;BME280;18905;42.668;23.364;2023-04-10T08:17:39;95194.09;;;10.67;99.94
28626;BME280;18905;42.668;23.364;2023-04-10T08:20:05;95193.75;;;10.51;100.00
28626;BME280;18905;42.668;23.364;2023-04-10T08:22:31;95177.59;;;10.77;100.00
28626;BME280;18905;42.668;23.364;2023-04-10T08:24:56;95193.16;;;10.80;100.00
28626;BME280;18905;42.668;23.364;2023-04-10T08:27:22;95190.78;;;10.78;100.00
28626;BME280;18905;42.668;23.364;2023-04-10T08:29:47;95187.78;;;10.97;100.00
28626;BME280;18905;42.668;23.364;2023-04-10T08:32:12;95192.88;;;11.24;98.73
28626;BME280;18905;42.668;23.364;2023-04-10T08:34:38;95178.19;;;10.57;100.00
28626;BME280;18905;42.668;23.364;2023-04-10T08:37:07;95186.31;;;10.09;100.00
28626;BME280;18905;42.668;23.364;2023-04-10T08:39:34;95200.41;;;10.37;100.00
28626;BME280;18905;42.668;23.364;2023-04-10T08:42:01;95191.03;;;10.51;100.00
28626;BME280;18905;42.668;23.364;2023-04-10T08:44:27;95182.53;;;10.75;100.00
28626;BME280;18905;42.668;23.364;2023-04-10T08:46:55;95182.69;;;10.87;100.00
28626;BME280;18905;42.668;23.364;2023-04-10T08:50:15;95181.25;;;10.72;100.00
28626;BME280;18905;42.668;23.364;2023-04-10T08:52:26;95183.09;;;10.38;100.00
28626;BME280;18905;42.668;23.364;2023-04-10T08:54:54;95185.84;;;10.55;100.00
28626;BME280;18905;42.668;23.364;2023-04-10T08:57:20;95195.22;;;10.57;100.00
28626;BME280;18905;42.668;23.364;2023-04-10T08:59:47;95180.78;;;10.87;100.00
28626;BME280;18905;42.668;23.364;2023-04-10T09:02:13;95183.97;;;10.89;99.17
28626;BME280;18905;42.668;23.364;2023-04-10T09:04:39;95177.91;;;10.67;99.98
28626;BME280;18905;42.668;23.364;2023-04-10T09:07:04;95181.28;;;10.89;98.01
28626;BME280;18905;42.668;23.364;2023-04-10T09:09:30;95175.50;;;10.65;95.70
28626;BME280;18905;42.668;23.364;2023-04-10T09:12:00;95178.81;;;10.37;95.96
28626;BME280;18905;42.668;23.364;2023-04-10T09:14:32;95170.41;;;10.47;95.88
28626;BME280;18905;42.668;23.364;2023-04-10T09:19:38;95136.91;;;10.48;91.54
28626;BME280;18905;42.668;23.364;2023-04-10T09:22:04;95160.59;;;10.76;90.90
28626;BME280;18905;42.668;23.364;2023-04-10T09:24:29;95161.25;;;11.16;90.59
28626;BME280;18905;42.668;23.364;2023-04-10T09:26:55;95144.25;;;11.07;90.64
28626;BME280;18905;42.668;23.364;2023-04-10T09:29:20;95173.47;;;11.13;90.66
28626;BME280;18905;42.668;23.364;2023-04-10T09:31:46;95172.38;;;10.89;91.20
28626;BME280;18905;42.668;23.364;2023-04-10T09:34:14;95161.72;;;11.01;92.11
28626;BME280;18905;42.668;23.364;2023-04-10T09:36:44;95169.50;;;11.28;91.57
28626;BME280;18905;42.668;23.364;2023-04-10T09:39:16;95163.47;;;11.22;91.54
28626;BME280;18905;42.668;23.364;2023-04-10T09:41:49;95158.22;;;11.17;90.74
28626;BME280;18905;42.668;23.364;2023-04-10T09:44:17;95150.75;;;10.63;93.73
28626;BME280;18905;42.668;23.364;2023-04-10T09:46:44;95149.13;;;10.54;96.96
28626;BME280;18905;42.668;23.364;2023-04-10T09:49:10;95159.09;;;10.45;97.53
28626;BME280;18905;42.668;23.364;2023-04-10T09:51:36;95161.34;;;10.51;95.73
28626;BME280;18905;42.668;23.364;2023-04-10T09:54:02;95162.97;;;10.52;95.56
28626;BME280;18905;42.668;23.364;2023-04-10T09:56:31;95142.63;;;10.72;92.60
28626;BME280;18905;42.668;23.364;2023-04-10T09:59:00;95144.22;;;10.64;90.05
28626;BME280;18905;42.668;23.364;2023-04-10T10:01:26;95157.91;;;11.10;87.97
28626;BME280;18905;42.668;23.364;2023-04-10T10:03:54;95149.78;;;11.27;86.76
28626;BME280;18905;42.668;23.364;2023-04-10T10:06:21;95134.81;;;11.47;85.50
28626;BME280;18905;42.668;23.364;2023-04-10T10:08:46;95158.16;;;11.51;83.86
28626;BME280;18905;42.668;23.364;2023-04-10T10:11:13;95151.97;;;11.51;83.86
28626;BME280;18905;42.668;23.364;2023-04-10T10:13:49;95122.47;;;11.03;83.12
28626;BME280;18905;42.668;23.364;2023-04-10T10:16:31;95134.06;;;11.21;83.74
28626;BME280;18905;42.668;23.364;2023-04-10T10:21:30;95126.69;;;11.47;82.73
28626;BME280;18905;42.668;23.364;2023-04-10T10:23:59;95126.97;;;11.54;80.71
28626;BME280;18905;42.668;23.364;2023-04-10T10:26:26;95122.53;;;11.58;81.00
28626;BME280;18905;42.668;23.364;2023-04-10T10:28:54;95133.28;;;11.83;79.68
28626;BME280;18905;42.668;23.364;2023-04-10T10:31:21;95120.31;;;12.06;86.36
28626;BME280;18905;42.668;23.364;2023-04-10T10:33:51;95113.97;;;12.31;82.22
28626;BME280;18905;42.668;23.364;2023-04-10T10:36:18;95096.84;;;11.81;80.30
28626;BME280;18905;42.668;23.364;2023-04-10T10:38:52;95106.66;;;11.94;80.85
28626;BME280;18905;42.668;23.364;2023-04-10T10:41:29;95103.59;;;12.04;78.83
28626;BME280;18905;42.668;23.364;2023-04-10T10:44:30;95096.72;;;12.07;77.92
28626;BME280;18905;42.668;23.364;2023-04-10T10:47:18;95102.56;;;11.88;79.08
28626;BME280;18905;42.668;23.364;2023-04-10T10:50:01;95088.34;;;12.00;77.90
28626;BME280;18905;42.668;23.364;2023-04-10T10:52:46;95094.03;;;12.07;76.70
28626;BME280;18905;42.668;23.364;2023-04-10T10:58:05;95090.13;;;11.96;79.01
28626;BME280;18905;42.668;23.364;2023-04-10T11:06:47;95076.81;;;12.11;77.92
28626;BME280;18905;42.668;23.364;2023-04-10T11:08:49;95070.53;;;12.69;71.85
28626;BME280;18905;42.668;23.364;2023-04-10T11:11:24;95053.94;;;12.91;68.40
28626;BME280;18905;42.668;23.364;2023-04-10T11:19:01;95060.63;;;13.14;63.94
28626;BME280;18905;42.668;23.364;2023-04-10T11:21:27;95046.78;;;13.39;80.92
28626;BME280;18905;42.668;23.364;2023-04-10T11:31:46;95055.31;;;11.86;77.06
28626;BME280;18905;42.668;23.364;2023-04-10T11:34:12;95040.34;;;11.88;81.58
28626;BME280;18905;42.668;23.364;2023-04-10T11:36:43;95051.72;;;12.02;78.87
28626;BME280;18905;42.668;23.364;2023-04-10T11:39:13;95048.25;;;12.22;76.88
28626;BME280;18905;42.668;23.364;2023-04-10T11:41:45;95043.56;;;12.31;76.81
28626;BME280;18905;42.668;23.364;2023-04-10T11:44:17;95040.06;;;12.10;76.10
28626;BME280;18905;42.668;23.364;2023-04-10T11:46:46;95002.16;;;11.81;77.06
28626;BME280;18905;42.668;23.364;2023-04-10T11:49:16;95050.28;;;12.05;76.40
28626;BME280;18905;42.668;23.364;2023-04-10T11:51:45;95044.91;;;11.96;75.19
28626;BME280;18905;42.668;23.364;2023-04-10T11:54:24;95043.38;;;11.87;78.51
28626;BME280;18905;42.668;23.364;2023-04-10T11:56:56;95038.16;;;11.82;78.76
28626;BME280;18905;42.668;23.364;2023-04-10T11:59:22;95031.56;;;11.45;78.05
28626;BME280;18905;42.668;23.364;2023-04-10T12:01:49;95038.34;;;11.22;77.75
28626;BME280;18905;42.668;23.364;2023-04-10T12:04:19;95044.09;;;11.20;76.94
28626;BME280;18905;42.668;23.364;2023-04-10T12:06:55;95050.00;;;10.97;79.09
28626;BME280;18905;42.668;23.364;2023-04-10T12:09:21;95027.91;;;10.95;82.63
28626;BME280;18905;42.668;23.364;2023-04-10T12:14:21;95031.41;;;10.95;92.48
28626;BME280;18905;42.668;23.364;2023-04-10T12:16:48;95041.91;;;10.80;100.00
28626;BME280;18905;42.668;23.364;2023-04-10T12:19:14;95024.31;;;10.40;100.00
28626;BME280;18905;42.668;23.364;2023-04-10T12:21:44;95056.78;;;10.01;100.00
28626;BME280;18905;42.668;23.364;2023-04-10T12:24:10;95055.28;;;9.78;100.00
28626;BME280;18905;42.668;23.364;2023-04-10T12:26:36;95054.56;;;9.55;100.00
28626;BME280;18905;42.668;23.364;2023-04-10T12:29:02;95064.69;;;9.89;100.00
28626;BME280;18905;42.668;23.364;2023-04-10T12:31:32;95024.56;;;9.40;100.00
28626;BME280;18905;42.668;23.364;2023-04-10T12:33:58;95055.00;;;9.10;100.00
28626;BME280;18905;42.668;23.364;2023-04-10T12:36:26;95037.53;;;8.77;100.00
28626;BME280;18905;42.668;23.364;2023-04-10T12:38:57;95051.22;;;8.89;100.00
28626;BME280;18905;42.668;23.364;2023-04-10T12:41:28;95059.34;;;9.19;100.00
28626;BME280;18905;42.668;23.364;2023-04-10T12:44:06;95053.88;;;9.41;100.00
28626;BME280;18905;42.668;23.364;2023-04-10T12:46:32;95040.84;;;9.35;100.00
28626;BME280;18905;42.668;23.364;2023-04-10T12:49:08;95050.56;;;9.92;100.00
28626;BME280;18905;42.668;23.364;2023-04-10T12:51:47;95021.81;;;9.79;100.00
28626;BME280;18905;42.668;23.364;2023-04-10T12:54:32;95042.56;;;9.70;100.00
28626;BME280;18905;42.668;23.364;2023-04-10T12:56:59;95047.16;;;9.61;100.00
28626;BME280;18905;42.668;23.364;2023-04-10T12:59:26;95011.13;;;9.57;100.00
28626;BME280;18905;42.668;23.364;2023-04-10T13:01:52;95042.03;;;9.51;100.00
28626;BME280;18905;42.668;23.364;2023-04-10T13:04:18;95032.16;;;9.85;100.00
28626;BME280;18905;42.668;23.364;2023-04-10T13:06:45;95040.91;;;9.99;100.00
28626;BME280;18905;42.668;23.364;2023-04-10T13:09:14;95035.97;;;10.01;100.00
28626;BME280;18905;42.668;23.364;2023-04-10T13:11:40;95027.53;;;9.77;100.00
28626;BME280;18905;42.668;23.364;2023-04-10T13:14:06;95027.09;;;9.92;100.00
28626;BME280;18905;42.668;23.364;2023-04-10T13:16:33;95012.19;;;10.03;100.00
28626;BME280;18905;42.668;23.364;2023-04-10T13:18:58;95003.19;;;10.08;100.00
28626;BME280;18905;42.668;23.364;2023-04-10T13:21:23;94991.31;;;10.34;100.00
28626;BME280;18905;42.668;23.364;2023-04-10T13:23:54;95019.38;;;10.84;100.00
28626;BME280;18905;42.668;23.364;2023-04-10T13:26:21;94983.50;;;11.13;100.00
28626;BME280;18905;42.668;23.364;2023-04-10T13:28:46;94993.31;;;11.72;100.00
28626;BME280;18905;42.668;23.364;2023-04-10T13:31:11;95014.72;;;11.86;100.00